createdAt,value
2017-08-17T00:00:47.182Z,6.53
2017-08-17T00:03:13.448Z,13.07
2017-08-17T00:05:39.698Z,7.60
2017-08-17T00:08:05.984Z,11.47
2017-08-17T00:10:32.233Z,7.27
2017-08-17T00:12:58.499Z,8.87
2017-08-17T00:15:25.359Z,6.57
2017-08-17T00:17:51.591Z,11.93
2017-08-17T00:20:17.843Z,7.00
2017-08-17T00:22:44.243Z,6.20
2017-08-17T00:25:17.491Z,9.03
2017-08-17T00:27:44.540Z,9.37
2017-08-17T00:30:10.787Z,8.50
2017-08-17T00:32:37.801Z,6.33
2017-08-17T00:35:04.634Z,11.30
2017-08-17T00:37:30.906Z,5.87
2017-08-17T00:39:57.171Z,7.03
2017-08-17T00:42:24.227Z,5.40
2017-08-17T00:45:02.742Z,5.87
2017-08-17T00:47:29.018Z,6.40
2017-08-17T00:49:55.270Z,5.60
2017-08-17T00:52:21.522Z,5.63
2017-08-17T00:54:48.539Z,7.53
2017-08-17T00:57:14.802Z,6.60
2017-08-17T00:59:41.055Z,6.53
2017-08-17T01:02:08.463Z,6.03
2017-08-17T01:04:34.927Z,9.30
2017-08-17T01:07:01.155Z,4.70
2017-08-17T01:09:27.415Z,6.80
2017-08-17T01:11:53.692Z,5.00
2017-08-17T01:14:19.938Z,8.33
2017-08-17T01:16:46.566Z,6.27
2017-08-17T01:19:12.807Z,5.53
2017-08-17T01:21:39.071Z,10.00
2017-08-17T01:24:05.468Z,6.77
2017-08-17T01:26:32.538Z,4.43
2017-08-17T01:28:58.818Z,4.97
2017-08-17T01:31:25.111Z,7.93
2017-08-17T01:33:51.366Z,6.20
2017-08-17T01:36:17.621Z,5.50
2017-08-17T01:38:44.350Z,7.70
2017-08-17T01:41:11.378Z,6.50
2017-08-17T01:43:37.623Z,5.40
2017-08-17T01:46:04.890Z,6.50
2017-08-17T01:48:31.154Z,6.00
2017-08-17T01:50:57.418Z,5.33
2017-08-17T01:53:24.463Z,4.60
2017-08-17T01:55:51.455Z,5.30
2017-08-17T01:58:17.703Z,5.93
2017-08-17T02:00:44.564Z,9.23
2017-08-17T02:03:10.824Z,5.57
2017-08-17T02:05:37.122Z,5.97
2017-08-17T02:08:03.383Z,7.60
2017-08-17T02:10:29.620Z,6.00
2017-08-17T02:12:55.864Z,9.20
2017-08-17T02:15:22.878Z,13.97
2017-08-17T02:17:49.123Z,11.30
2017-08-17T02:20:15.364Z,6.40
2017-08-17T02:22:45.749Z,4.50
2017-08-17T02:25:11.998Z,4.77
2017-08-17T02:27:38.227Z,5.50
2017-08-17T02:30:07.727Z,5.67
2017-08-17T02:32:33.971Z,5.90
2017-08-17T02:35:00.216Z,5.43
2017-08-17T02:37:27.347Z,6.10
2017-08-17T02:39:53.595Z,4.80
2017-08-17T02:42:19.831Z,9.43
2017-08-17T02:44:47.663Z,5.73
2017-08-17T02:47:15.842Z,5.80
2017-08-17T02:49:42.083Z,5.73
2017-08-17T02:52:09.971Z,6.83
2017-08-17T02:54:36.946Z,5.83
2017-08-17T02:57:03.181Z,5.40
2017-08-17T02:59:29.447Z,6.00
2017-08-17T03:01:55.694Z,5.27
2017-08-17T03:04:21.926Z,6.17
2017-08-17T03:06:48.695Z,6.57
2017-08-17T03:09:15.670Z,6.03
2017-08-17T03:11:41.922Z,5.33
2017-08-17T03:14:09.053Z,7.07
2017-08-17T03:16:35.293Z,5.40
2017-08-17T03:19:01.583Z,6.37
2017-08-17T03:21:27.863Z,4.73
2017-08-17T03:23:54.092Z,5.70
2017-08-17T03:26:20.345Z,6.03
2017-08-17T03:28:49.122Z,5.03
2017-08-17T03:31:15.366Z,5.63
2017-08-17T03:33:41.606Z,9.87
2017-08-17T03:36:07.858Z,5.70
2017-08-17T03:38:34.119Z,9.90
2017-08-17T03:41:00.362Z,6.80
2017-08-17T03:43:27.544Z,8.27
2017-08-17T03:45:53.819Z,6.30
2017-08-17T03:48:22.327Z,8.27
2017-08-17T03:50:50.550Z,6.63
2017-08-17T03:53:16.787Z,7.33
2017-08-17T03:55:43.043Z,5.30
2017-08-17T03:58:09.333Z,6.50
2017-08-17T04:00:36.336Z,5.90
2017-08-17T04:03:02.583Z,5.60
2017-08-17T04:05:28.844Z,7.50
2017-08-17T04:07:55.098Z,10.27
2017-08-17T04:10:22.090Z,8.67
2017-08-17T04:12:48.387Z,6.03
2017-08-17T04:15:15.375Z,7.13
2017-08-17T04:17:41.640Z,7.47
2017-08-17T04:20:07.972Z,7.73
2017-08-17T04:22:34.234Z,7.47
2017-08-17T04:25:01.239Z,9.47
2017-08-17T04:27:27.518Z,7.57
2017-08-17T04:29:53.810Z,8.63
2017-08-17T04:32:20.059Z,12.63
2017-08-17T04:34:46.666Z,7.90
2017-08-17T04:37:12.911Z,8.23
2017-08-17T04:39:39.142Z,9.27
2017-08-17T04:42:05.585Z,7.63
2017-08-17T04:44:39.051Z,8.23
2017-08-17T04:47:06.035Z,12.37
2017-08-17T04:49:33.883Z,11.57
2017-08-17T04:52:00.870Z,10.10
2017-08-17T04:54:27.650Z,9.40
2017-08-17T04:57:17.295Z,10.17
2017-08-17T04:59:43.578Z,12.90
2017-08-17T05:02:10.662Z,9.73
2017-08-17T05:04:36.951Z,12.17
2017-08-17T05:07:03.982Z,9.90
2017-08-17T05:09:30.258Z,9.47
2017-08-17T05:11:56.539Z,12.30
2017-08-17T05:14:23.061Z,13.23
2017-08-17T05:16:49.345Z,13.10
2017-08-17T05:19:16.355Z,14.83
2017-08-17T05:21:42.726Z,12.30
2017-08-17T05:24:09.045Z,12.17
2017-08-17T05:26:35.288Z,12.03
2017-08-17T05:29:01.595Z,12.80
2017-08-17T05:31:27.882Z,13.87
2017-08-17T05:33:54.911Z,14.77
2017-08-17T05:36:21.802Z,16.73
2017-08-17T05:38:48.846Z,16.43
2017-08-17T05:41:15.312Z,19.57
2017-08-17T05:43:41.611Z,15.67
2017-08-17T05:46:07.885Z,20.10
2017-08-17T05:48:34.146Z,15.90
2017-08-17T05:51:12.590Z,17.07
2017-08-17T05:53:39.615Z,19.03
2017-08-17T05:56:05.864Z,19.20
2017-08-17T05:58:32.198Z,17.07
2017-08-17T06:00:58.467Z,22.00
2017-08-17T06:03:25.490Z,19.10
2017-08-17T06:05:51.782Z,24.13
2017-08-17T06:08:18.053Z,24.50
2017-08-17T06:10:44.295Z,31.03
2017-08-17T06:13:10.721Z,26.13
2017-08-17T06:15:37.002Z,31.83
2017-08-17T06:18:03.293Z,28.50
2017-08-17T06:20:29.614Z,26.90
2017-08-17T06:22:55.847Z,29.10
2017-08-17T06:25:22.099Z,27.57
2017-08-17T06:27:48.374Z,32.17
2017-08-17T06:30:14.662Z,30.93
2017-08-17T06:32:40.938Z,32.80
2017-08-17T06:35:07.199Z,30.57
2017-08-17T06:37:34.205Z,29.33
2017-08-17T06:40:00.458Z,31.50
2017-08-17T06:42:26.804Z,34.90
2017-08-17T06:44:53.078Z,32.67
2017-08-17T06:47:19.365Z,31.37
2017-08-17T06:49:45.622Z,38.80
2017-08-17T06:52:13.466Z,40.33
2017-08-17T06:54:39.712Z,34.23
2017-08-17T06:57:06.758Z,33.83
2017-08-17T06:59:33.054Z,34.83
2017-08-17T07:01:59.343Z,47.17
2017-08-17T07:04:25.674Z,41.60
2017-08-17T07:06:52.678Z,38.37
2017-08-17T07:09:18.930Z,38.03
2017-08-17T07:11:45.367Z,43.53
2017-08-17T07:14:11.634Z,41.30
2017-08-17T07:16:37.887Z,41.50
2017-08-17T07:19:04.198Z,32.23
2017-08-17T07:21:30.448Z,37.00
2017-08-17T07:23:57.458Z,40.63
2017-08-17T07:26:24.598Z,45.43
2017-08-17T07:28:50.854Z,39.30
2017-08-17T07:31:17.111Z,37.40
2017-08-17T07:33:43.507Z,32.60
2017-08-17T07:36:09.791Z,35.90
2017-08-17T07:38:36.811Z,37.17
2017-08-17T07:41:03.102Z,33.13
2017-08-17T07:43:29.376Z,29.67
2017-08-17T07:45:55.687Z,40.60
2017-08-17T07:50:55.430Z,30.37
2017-08-17T07:53:23.306Z,39.33
2017-08-17T07:55:49.614Z,43.77
2017-08-17T07:58:16.038Z,31.63
2017-08-17T08:00:43.053Z,31.47
2017-08-17T08:03:09.398Z,33.17
2017-08-17T08:05:35.674Z,33.73
2017-08-17T08:08:02.678Z,33.70
2017-08-17T08:10:28.954Z,33.17
2017-08-17T08:12:55.522Z,30.63
2017-08-17T08:15:21.873Z,33.07
2017-08-17T08:17:48.162Z,34.53
2017-08-17T08:20:15.208Z,36.93
2017-08-17T08:22:41.442Z,34.37
2017-08-17T08:25:07.681Z,32.23
2017-08-17T08:27:33.977Z,35.33
2017-08-17T08:30:00.246Z,27.60
2017-08-17T08:32:26.474Z,28.37
2017-08-17T08:34:53.078Z,32.93
2017-08-17T08:37:19.342Z,29.73
2017-08-17T08:39:45.584Z,32.97
2017-08-17T08:42:11.939Z,31.80
2017-08-17T08:44:38.191Z,32.73
2017-08-17T08:47:05.167Z,34.60
2017-08-17T08:49:31.418Z,29.40
2017-08-17T08:51:57.687Z,38.47
2017-08-17T08:54:35.734Z,32.93
2017-08-17T08:57:02.014Z,31.83
2017-08-17T08:59:28.270Z,27.40
2017-08-17T09:01:54.583Z,26.27
2017-08-17T09:04:21.630Z,27.40
2017-08-17T09:06:47.891Z,28.30
2017-08-17T09:09:14.303Z,32.33
2017-08-17T09:11:40.568Z,27.70
2017-08-17T09:14:06.855Z,30.33
2017-08-17T09:16:34.098Z,26.37
2017-08-17T09:19:00.366Z,30.00
2017-08-17T09:21:26.644Z,28.50
2017-08-17T09:23:53.646Z,25.07
2017-08-17T09:26:19.880Z,29.73
2017-08-17T09:28:46.143Z,23.07
2017-08-17T09:31:12.424Z,23.70
2017-08-17T09:33:38.689Z,23.03
2017-08-17T09:36:04.926Z,26.33
2017-08-17T09:38:31.731Z,21.40
2017-08-17T09:40:58.699Z,22.00
2017-08-17T09:43:24.980Z,19.07
2017-08-17T09:45:51.407Z,19.43
2017-08-17T09:48:17.655Z,20.97
2017-08-17T09:50:43.919Z,18.07
2017-08-17T09:53:10.935Z,17.17
2017-08-17T09:55:47.674Z,21.43
2017-08-17T09:58:14.074Z,16.57
2017-08-17T10:00:41.063Z,19.47
2017-08-17T10:03:07.306Z,15.63
2017-08-17T10:05:33.574Z,14.23
2017-08-17T10:07:59.850Z,17.17
2017-08-17T10:10:26.822Z,13.90
2017-08-17T10:12:53.098Z,16.00
2017-08-17T10:15:19.370Z,15.40
2017-08-17T10:17:45.674Z,16.23
2017-08-17T10:20:11.966Z,29.20
2017-08-17T10:22:38.201Z,16.90
2017-08-17T10:25:04.442Z,15.47
2017-08-17T10:27:30.847Z,22.50
2017-08-17T10:29:57.885Z,16.80
2017-08-17T10:32:24.879Z,18.03
2017-08-17T10:34:51.162Z,18.00
2017-08-17T10:37:18.197Z,14.97
2017-08-17T10:39:44.448Z,14.30
2017-08-17T10:42:10.944Z,12.57
2017-08-17T10:44:37.206Z,14.10
2017-08-17T10:47:03.448Z,12.40
2017-08-17T10:49:29.747Z,11.10
2017-08-17T10:51:56.019Z,13.17
2017-08-17T10:54:22.306Z,11.70
2017-08-17T10:56:49.410Z,12.10
2017-08-17T10:59:15.671Z,13.63
2017-08-17T11:01:42.685Z,13.10
2017-08-17T11:04:10.019Z,11.57
2017-08-17T11:06:36.255Z,12.03
2017-08-17T11:09:02.542Z,11.73
2017-08-17T11:11:28.918Z,19.53
2017-08-17T11:13:55.950Z,12.57
2017-08-17T11:16:22.205Z,10.70
2017-08-17T11:18:48.536Z,13.60
2017-08-17T11:21:14.794Z,11.87
2017-08-17T11:23:41.051Z,12.93
2017-08-17T11:26:07.959Z,12.43
2017-08-17T11:28:34.996Z,12.27
2017-08-17T11:31:01.987Z,10.70
2017-08-17T11:33:28.246Z,10.30
2017-08-17T11:35:54.501Z,11.40
2017-08-17T11:38:21.515Z,11.87
2017-08-17T11:40:47.787Z,10.57
2017-08-17T11:43:14.039Z,11.47
2017-08-17T11:45:41.024Z,13.57
2017-08-17T11:48:08.275Z,10.17
2017-08-17T11:50:34.527Z,9.83
2017-08-17T11:53:00.794Z,9.87
2017-08-17T11:55:27.042Z,9.67
2017-08-17T11:58:05.343Z,10.33
2017-08-17T12:00:31.638Z,10.50
2017-08-17T12:02:57.903Z,11.80
2017-08-17T12:05:24.166Z,10.90
2017-08-17T12:07:52.318Z,9.90
2017-08-17T12:10:18.571Z,10.43
2017-08-17T12:12:44.817Z,10.53
2017-08-17T12:15:11.966Z,10.60
2017-08-17T12:17:38.983Z,10.73
2017-08-17T12:20:05.231Z,11.40
2017-08-17T12:22:31.499Z,9.63
2017-08-17T12:24:58.492Z,8.83
2017-08-17T12:27:24.734Z,9.90
2017-08-17T12:29:51.042Z,9.97
2017-08-17T12:32:17.293Z,10.63
2017-08-17T12:34:43.563Z,11.07
2017-08-17T12:37:09.854Z,14.17
2017-08-17T12:39:36.095Z,12.20
2017-08-17T12:42:02.354Z,13.60
2017-08-17T12:44:28.619Z,8.30
2017-08-17T12:46:54.919Z,10.63
2017-08-17T12:49:21.190Z,10.87
2017-08-17T12:51:48.238Z,13.63
2017-08-17T12:54:14.486Z,14.20
2017-08-17T12:56:40.734Z,19.40
2017-08-17T12:59:07.898Z,10.07
2017-08-17T13:01:34.198Z,13.10
2017-08-17T13:04:01.255Z,9.43
2017-08-17T13:06:28.459Z,10.87
2017-08-17T13:08:54.787Z,10.57
2017-08-17T13:11:21.038Z,10.53
2017-08-17T13:13:47.650Z,12.10
2017-08-17T13:16:14.622Z,11.37
2017-08-17T13:18:40.875Z,11.60
2017-08-17T13:21:07.141Z,9.90
2017-08-17T13:23:33.418Z,13.33
2017-08-17T13:25:59.667Z,13.67
2017-08-17T13:28:26.085Z,7.73
2017-08-17T13:30:52.339Z,8.87
2017-08-17T13:33:18.628Z,8.77
2017-08-17T13:35:44.958Z,9.03
2017-08-17T13:38:11.234Z,13.10
2017-08-17T13:40:38.218Z,9.90
2017-08-17T13:43:04.637Z,14.37
2017-08-17T13:45:37.865Z,10.73
2017-08-17T13:48:04.102Z,10.33
2017-08-17T13:50:30.335Z,8.63
2017-08-17T13:52:56.566Z,7.40
2017-08-17T13:55:23.586Z,8.10
2017-08-17T13:57:49.814Z,7.27
2017-08-17T14:00:17.041Z,7.97
2017-08-17T14:02:44.052Z,7.23
2017-08-17T14:05:10.319Z,9.00
2017-08-17T14:07:37.342Z,9.23
2017-08-17T14:10:03.626Z,12.57
2017-08-17T14:12:29.895Z,8.03
2017-08-17T14:14:56.154Z,8.53
2017-08-17T14:17:23.274Z,14.10
2017-08-17T14:19:49.528Z,9.93
2017-08-17T14:22:15.807Z,8.27
2017-08-17T14:24:42.224Z,7.77
2017-08-17T14:27:08.481Z,10.67
2017-08-17T14:29:34.782Z,8.00
2017-08-17T14:32:01.046Z,9.43
2017-08-17T14:34:27.305Z,8.93
2017-08-17T14:36:54.291Z,22.47
2017-08-17T14:39:21.355Z,106.53
2017-08-17T14:41:47.594Z,85.87
2017-08-17T14:44:13.843Z,122.70
2017-08-17T14:46:40.193Z,65.60
2017-08-17T14:49:06.527Z,21.80
2017-08-17T14:51:32.864Z,13.50
2017-08-17T14:53:59.231Z,14.40
2017-08-17T14:56:25.500Z,11.57
2017-08-17T14:58:51.754Z,20.33
2017-08-17T15:01:30.432Z,15.90
2017-08-17T15:03:56.708Z,18.90
2017-08-17T15:06:22.965Z,15.93
2017-08-17T15:08:49.390Z,15.27
2017-08-17T15:11:15.639Z,12.60
2017-08-17T15:13:41.917Z,14.50
2017-08-17T15:16:08.166Z,14.83
2017-08-17T15:18:35.207Z,13.93
2017-08-17T15:21:01.467Z,12.63
2017-08-17T15:23:28.585Z,16.17
2017-08-17T15:25:55.622Z,18.73
2017-08-17T15:28:22.626Z,28.77
2017-08-17T15:30:48.899Z,16.93
2017-08-17T15:33:15.943Z,12.63
2017-08-17T15:35:42.179Z,13.20
2017-08-17T15:38:08.469Z,14.97
2017-08-17T15:40:34.719Z,16.57
2017-08-17T15:43:00.983Z,13.00
2017-08-17T15:45:27.291Z,13.97
2017-08-17T15:47:53.517Z,13.10
2017-08-17T15:50:19.813Z,13.43
2017-08-17T15:52:46.077Z,15.27
2017-08-17T15:55:12.347Z,16.27
2017-08-17T15:57:38.602Z,16.80
2017-08-17T16:00:04.978Z,16.63
2017-08-17T16:02:32.844Z,15.80
2017-08-17T16:04:59.086Z,13.20
2017-08-17T16:07:26.222Z,17.90
2017-08-17T16:09:53.216Z,15.10
2017-08-17T16:12:19.490Z,18.30
2017-08-17T16:14:46.522Z,16.83
2017-08-17T16:17:12.769Z,20.97
2017-08-17T16:19:39.006Z,17.87
2017-08-17T16:22:05.276Z,27.13
2017-08-17T16:24:31.522Z,102.90
2017-08-17T16:26:57.762Z,25.27
2017-08-17T16:29:24.383Z,17.93
2017-08-17T16:31:50.667Z,18.40
2017-08-17T16:34:16.913Z,19.00
2017-08-17T16:36:43.182Z,23.20
2017-08-17T16:39:09.543Z,18.87
2017-08-17T16:41:35.799Z,20.20
2017-08-17T16:44:02.207Z,16.80
2017-08-17T16:47:06.290Z,27.97
2017-08-17T16:49:33.398Z,20.10
2017-08-17T16:51:59.650Z,21.80
2017-08-17T16:54:25.938Z,26.60
2017-08-17T16:56:52.291Z,27.03
2017-08-17T16:59:18.534Z,29.07
2017-08-17T17:01:44.816Z,27.60
2017-08-17T17:04:23.050Z,29.80
2017-08-17T17:06:49.289Z,29.77
2017-08-17T17:09:15.530Z,19.83
2017-08-17T17:11:42.874Z,17.77
2017-08-17T17:14:09.150Z,24.77
2017-08-17T17:16:35.402Z,49.33
2017-08-17T17:19:01.663Z,29.77
2017-08-17T17:21:28.662Z,33.03
2017-08-17T17:23:54.928Z,19.20
2017-08-17T17:26:21.247Z,19.40
2017-08-17T17:28:47.506Z,19.00
2017-08-17T17:31:13.767Z,22.63
2017-08-17T17:33:40.112Z,16.63
2017-08-17T17:36:06.358Z,23.77
2017-08-17T17:38:32.596Z,26.03
2017-08-17T17:40:58.849Z,16.83
2017-08-17T17:43:25.083Z,22.60
2017-08-17T17:45:51.332Z,23.77
2017-08-17T17:48:17.629Z,23.23
2017-08-17T17:50:43.875Z,22.37
2017-08-17T17:53:10.143Z,26.73
2017-08-17T17:55:36.622Z,32.70
2017-08-17T17:58:03.627Z,22.70
2017-08-17T18:00:29.886Z,23.43
2017-08-17T18:02:56.138Z,24.83
2017-08-17T18:05:34.346Z,23.97
2017-08-17T18:08:01.362Z,21.53
2017-08-17T18:10:27.606Z,27.77
2017-08-17T18:12:53.842Z,21.37
2017-08-17T18:15:20.955Z,20.47
2017-08-17T18:17:47.235Z,21.40
2017-08-17T18:20:13.532Z,22.87
2017-08-17T18:22:39.950Z,25.03
2017-08-17T18:25:06.204Z,20.80
2017-08-17T18:27:32.451Z,22.50
2017-08-17T18:29:58.807Z,24.07
2017-08-17T18:32:25.070Z,22.17
2017-08-17T18:34:52.061Z,20.77
2017-08-17T18:37:19.195Z,20.40
2017-08-17T18:39:45.434Z,19.97
2017-08-17T18:42:11.678Z,30.93
2017-08-17T18:44:37.930Z,24.57
2017-08-17T18:47:04.183Z,25.30
2017-08-17T18:49:30.465Z,26.00
2017-08-17T18:51:57.594Z,21.47
2017-08-17T18:54:23.866Z,27.33
2017-08-17T18:56:50.200Z,22.07
2017-08-17T18:59:16.492Z,21.20
2017-08-17T19:01:42.766Z,22.80
2017-08-17T19:04:09.043Z,23.30
2017-08-17T19:06:48.046Z,23.30
2017-08-17T19:09:14.313Z,26.20
2017-08-17T19:11:40.583Z,24.63
2017-08-17T19:14:07.597Z,28.47
2017-08-17T19:16:34.084Z,31.40
2017-08-17T19:19:00.517Z,25.03
2017-08-17T19:21:26.863Z,32.20
2017-08-17T19:23:54.121Z,28.70
2017-08-17T19:26:21.199Z,31.47
2017-08-17T19:28:47.478Z,32.23
2017-08-17T19:31:13.857Z,34.10
2017-08-17T19:33:40.238Z,32.23
2017-08-17T19:36:07.669Z,34.57
2017-08-17T19:38:34.878Z,31.67
2017-08-17T19:41:01.272Z,38.17
2017-08-17T19:43:28.403Z,31.40
2017-08-17T19:45:54.671Z,32.80
2017-08-17T19:48:21.065Z,37.53
2017-08-17T19:50:48.353Z,43.33
2017-08-17T19:53:14.638Z,38.10
2017-08-17T19:55:41.706Z,39.33
2017-08-17T19:58:08.913Z,39.10
2017-08-17T20:00:35.206Z,42.07
2017-08-17T20:03:02.234Z,43.23
2017-08-17T20:05:30.159Z,44.33
2017-08-17T20:07:57.110Z,43.77
2017-08-17T20:10:23.365Z,42.53
2017-08-17T20:12:49.633Z,46.07
2017-08-17T20:15:15.900Z,46.07
2017-08-17T20:17:42.176Z,44.03
2017-08-17T20:20:08.471Z,45.83
2017-08-17T20:22:34.767Z,48.10
2017-08-17T20:25:01.770Z,44.70
2017-08-17T20:27:29.027Z,53.97
2017-08-17T20:29:55.278Z,50.50
2017-08-17T20:32:21.571Z,54.57
2017-08-17T20:34:47.868Z,53.50
2017-08-17T20:37:14.126Z,53.30
2017-08-17T20:39:40.427Z,51.77
2017-08-17T20:42:06.715Z,59.63
2017-08-17T20:44:33.728Z,117.33
2017-08-17T20:46:59.983Z,92.70
2017-08-17T20:49:27.019Z,50.93
2017-08-17T20:51:53.271Z,51.33
2017-08-17T20:54:19.535Z,49.83
2017-08-17T20:56:45.831Z,49.77
2017-08-17T20:59:12.094Z,48.80
2017-08-17T21:01:39.095Z,44.27
2017-08-17T21:04:05.358Z,47.63
2017-08-17T21:06:31.620Z,48.30
2017-08-17T21:08:59.355Z,47.70
2017-08-17T21:11:26.569Z,49.67
2017-08-17T21:13:52.824Z,50.20
2017-08-17T21:16:19.105Z,64.73
2017-08-17T21:18:45.382Z,89.20
2017-08-17T21:21:11.632Z,49.93
2017-08-17T21:23:37.903Z,46.93
2017-08-17T21:26:04.183Z,48.57
2017-08-17T21:28:30.468Z,41.77
2017-08-17T21:30:56.743Z,41.27
2017-08-17T21:33:24.110Z,39.13
2017-08-17T21:35:50.362Z,43.97
2017-08-17T21:38:16.618Z,46.40
2017-08-17T21:40:42.894Z,43.93
2017-08-17T21:43:09.170Z,41.57
2017-08-17T21:45:35.426Z,42.30
2017-08-17T21:48:01.846Z,36.80
2017-08-17T21:50:28.117Z,39.30
2017-08-17T21:52:54.362Z,39.40
2017-08-17T21:55:20.786Z,39.23
2017-08-17T21:57:47.060Z,42.53
2017-08-17T22:00:14.030Z,41.13
2017-08-17T22:02:40.311Z,41.13
2017-08-17T22:05:06.562Z,42.50
2017-08-17T22:07:33.560Z,45.60
2017-08-17T22:10:00.683Z,50.23
2017-08-17T22:12:27.663Z,48.20
2017-08-17T22:14:54.621Z,38.50
2017-08-17T22:17:21.459Z,45.30
2017-08-17T22:19:47.688Z,36.97
2017-08-17T22:22:13.948Z,50.50
2017-08-17T22:24:40.202Z,36.87
2017-08-17T22:27:06.417Z,43.90
2017-08-17T22:29:32.676Z,34.03
2017-08-17T22:31:58.925Z,40.13
2017-08-17T22:34:25.175Z,37.53
2017-08-17T22:36:51.465Z,40.20
2017-08-17T22:39:17.962Z,39.93
2017-08-17T22:41:44.937Z,42.60
2017-08-17T22:44:11.176Z,38.07
2017-08-17T22:46:37.438Z,36.27
2017-08-17T22:49:03.682Z,42.27
2017-08-17T22:51:29.930Z,37.27
2017-08-17T22:53:56.164Z,41.60
2017-08-17T22:56:22.421Z,40.60
2017-08-17T22:58:49.441Z,39.93
2017-08-17T23:01:16.560Z,39.87
2017-08-17T23:03:42.794Z,46.40
2017-08-17T23:06:09.028Z,42.63
2017-08-17T23:08:35.272Z,44.27
2017-08-17T23:11:02.328Z,42.37
2017-08-17T23:13:28.562Z,42.47
2017-08-17T23:15:54.836Z,37.93
2017-08-17T23:18:21.851Z,36.07
2017-08-17T23:20:48.100Z,40.33
2017-08-17T23:23:14.454Z,33.90
2017-08-17T23:25:40.710Z,32.90
2017-08-17T23:28:07.691Z,37.73
2017-08-17T23:30:34.086Z,34.20
2017-08-17T23:33:01.090Z,34.73
2017-08-17T23:35:27.338Z,34.60
2017-08-17T23:37:53.627Z,32.50
2017-08-17T23:40:20.613Z,35.10
2017-08-17T23:42:46.878Z,31.97
2017-08-17T23:45:13.779Z,41.83
2017-08-17T23:47:40.057Z,35.27
2017-08-17T23:50:06.302Z,34.97
2017-08-17T23:52:32.581Z,34.23
2017-08-17T23:54:58.846Z,32.30
2017-08-17T23:57:25.078Z,35.47
2017-08-17T23:59:51.368Z,37.33
